Time;durP1;ratioP1;P1;durP2;ratioP2;P2;SDS_P1;SDS_P2;PMS_P1;PMS_P2;Temp;Humidity;BMP_temperature;BMP_pressure;BME280_temperature;BME280_humidity;BME280_pressure;Samples;Min_cycle;Max_cycle;Signal;HPM_P1;HPM_P2
2023/01/31 00:01:07;;;;;;;40.97;6.80;;;3.60;99.90;;;;;;6240710;23;20027;-85
2023/01/31 00:03:33;;;;;;;31.65;6.93;;;3.30;99.90;;;;;;6189327;23;20340;-85
2023/01/31 00:06:14;;;;;;;36.10;6.55;;;3.20;99.90;;;;;;6215577;23;20017;-85
2023/01/31 00:08:41;;;;;;;34.72;6.55;;;3.50;99.90;;;;;;6216284;23;20015;-85
2023/01/31 00:11:07;;;;;;;37.85;8.15;;;3.20;99.90;;;;;;6215850;23;20013;-85
2023/01/31 00:13:32;;;;;;;36.85;6.38;;;3.20;99.90;;;;;;6188499;23;20067;-86
2023/01/31 00:15:58;;;;;;;41.67;6.63;;;3.20;99.90;;;;;;6214416;23;20455;-85
2023/01/31 00:18:24;;;;;;;37.78;6.55;;;3.10;99.90;;;;;;6214016;23;20336;-84
2023/01/31 00:20:50;;;;;;;37.17;6.30;;;3.10;99.90;;;;;;6189140;23;20013;-86
2023/01/31 00:23:15;;;;;;;35.05;6.03;;;3.10;99.90;;;;;;6240186;23;20023;-85
2023/01/31 00:25:41;;;;;;;38.17;6.53;;;3.10;99.90;;;;;;6214245;23;20012;-86
2023/01/31 00:28:07;;;;;;;36.88;6.15;;;3.10;99.90;;;;;;6215826;23;20489;-85
2023/01/31 00:30:33;;;;;;;39.17;5.97;;;3.00;99.90;;;;;;6215807;23;20058;-85
2023/01/31 00:32:59;;;;;;;33.10;5.72;;;3.00;99.90;;;;;;6214403;23;20040;-85
2023/01/31 00:35:25;;;;;;;35.38;5.95;;;3.60;99.90;;;;;;6214715;23;20375;-85
2023/01/31 00:37:51;;;;;;;37.75;6.35;;;3.00;99.90;;;;;;6240183;23;20051;-85
2023/01/31 00:40:16;;;;;;;35.95;6.85;;;3.40;99.90;;;;;;6214620;23;20009;-85
2023/01/31 00:42:43;;;;;;;36.25;6.47;;;2.90;99.90;;;;;;6188728;23;20012;-86
2023/01/31 00:45:09;;;;;;;35.17;6.53;;;3.00;99.90;;;;;;6215972;23;20454;-86
2023/01/31 00:47:34;;;;;;;34.78;6.63;;;3.00;99.90;;;;;;6189330;23;20020;-85
2023/01/31 00:50:00;;;;;;;39.72;6.60;;;3.00;99.90;;;;;;6189389;23;20012;-85
2023/01/31 00:52:26;;;;;;;36.25;5.93;;;3.00;99.90;;;;;;6239609;23;20013;-85
2023/01/31 00:54:52;;;;;;;35.85;5.93;;;2.90;99.90;;;;;;6215076;23;20012;-85
2023/01/31 00:57:17;;;;;;;37.95;5.47;;;2.90;99.90;;;;;;6187350;23;20008;-86
2023/01/31 00:59:43;;;;;;;35.83;5.63;;;2.90;99.90;;;;;;6188487;23;20015;-86
2023/01/31 01:02:09;;;;;;;31.88;5.45;;;2.90;99.90;;;;;;6213955;23;20030;-86
2023/01/31 01:04:34;;;;;;;28.52;5.10;;;2.90;99.90;;;;;;6215168;23;20012;-85
2023/01/31 01:07:00;;;;;;;27.52;4.90;;;3.00;99.90;;;;;;6187782;23;20071;-85
2023/01/31 01:09:26;;;;;;;25.35;6.30;;;3.20;99.90;;;;;;6214761;23;20082;-85
2023/01/31 01:11:51;;;;;;;29.40;5.07;;;2.90;99.90;;;;;;6214297;23;20102;-86
2023/01/31 01:14:17;;;;;;;32.05;5.10;;;2.90;99.90;;;;;;6212399;23;20009;-86
2023/01/31 01:16:43;;;;;;;32.80;5.25;;;2.90;99.90;;;;;;6212269;23;20335;-85
2023/01/31 01:19:17;;;;;;;34.47;5.60;;;2.90;99.90;;;;;;6214974;23;20051;-86
2023/01/31 01:21:43;;;;;;;32.00;5.47;;;2.90;99.90;;;;;;6214325;23;20076;-85
2023/01/31 01:24:15;;;;;;;26.60;5.13;;;2.80;99.90;;;;;;6213848;23;20051;-85
2023/01/31 01:26:41;;;;;;;34.55;5.50;;;2.80;99.90;;;;;;6212994;23;20015;-86
2023/01/31 01:29:08;;;;;;;30.38;5.40;;;2.80;99.90;;;;;;6212878;23;20040;-86
2023/01/31 01:31:33;;;;;;;32.55;5.22;;;2.70;99.90;;;;;;6212694;23;20011;-86
2023/01/31 01:34:10;;;;;;;32.85;5.18;;;2.70;99.90;;;;;;6213926;23;20016;-85
2023/01/31 01:36:36;;;;;;;30.08;5.53;;;2.60;99.90;;;;;;6212381;23;20019;-85
2023/01/31 01:39:05;;;;;;;25.33;5.18;;;2.50;99.90;;;;;;6212209;23;20015;-85
2023/01/31 01:41:34;;;;;;;35.50;5.65;;;2.50;99.90;;;;;;6214336;23;20009;-86
2023/01/31 01:44:03;;;;;;;23.40;4.97;;;2.50;99.90;;;;;;6187195;23;20059;-86
2023/01/31 01:46:42;;;;;;;36.63;5.80;;;2.50;99.90;;;;;;6212416;23;20044;-86
2023/01/31 01:49:27;;;;;;;29.65;5.07;;;2.50;99.90;;;;;;6212913;23;20031;-85
2023/01/31 01:51:56;;;;;;;33.90;6.25;;;2.50;99.90;;;;;;6212423;23;20040;-85
2023/01/31 01:54:27;;;;;;;28.20;4.90;;;2.50;99.90;;;;;;6237626;23;20043;-85
2023/01/31 01:56:57;;;;;;;34.67;5.22;;;2.50;99.90;;;;;;6212365;23;20012;-84
2023/01/31 01:59:29;;;;;;;28.00;5.00;;;2.60;99.90;;;;;;6212372;23;20017;-86
2023/01/31 02:01:55;;;;;;;32.72;4.80;;;2.60;99.90;;;;;;6212640;23;20317;-85
2023/01/31 02:04:38;;;;;;;30.33;5.13;;;2.60;99.90;;;;;;6212569;23;20015;-86
2023/01/31 02:07:05;;;;;;;24.20;4.40;;;2.80;99.90;;;;;;6238141;23;20004;-85
2023/01/31 02:09:40;;;;;;;37.45;5.72;;;2.60;99.90;;;;;;6211944;23;20079;-85
2023/01/31 02:12:07;;;;;;;38.38;5.75;;;2.70;99.90;;;;;;6187358;23;20328;-85
2023/01/31 02:14:33;;;;;;;24.20;4.05;;;2.70;99.90;;;;;;6237671;23;20451;-86
2023/01/31 02:16:58;;;;;;;25.33;4.82;;;3.00;99.90;;;;;;6212147;23;20086;-85
2023/01/31 02:19:57;;;;;;;28.15;5.28;;;3.10;99.90;;;;;;6213794;23;20016;-85
2023/01/31 02:22:38;;;;;;;29.20;5.18;;;2.80;99.90;;;;;;6211475;23;20087;-85
2023/01/31 02:25:30;;;;;;;29.17;4.30;;;2.80;99.90;;;;;;6212070;23;20214;-86
2023/01/31 02:28:31;;;;;;;25.63;5.13;;;2.90;99.90;;;;;;6211826;23;20021;-85
2023/01/31 02:31:34;;;;;;;32.33;6.25;;;2.90;99.90;;;;;;6150889;23;20048;-85
2023/01/31 02:34:32;;;;;;;28.33;4.88;;;3.00;99.90;;;;;;6150994;23;20052;-85
2023/01/31 02:37:11;;;;;;;25.33;5.00;;;3.00;99.90;;;;;;6125880;23;20188;-85
2023/01/31 02:40:07;;;;;;;23.27;4.70;;;3.00;99.90;;;;;;6101908;23;20013;-86
2023/01/31 02:42:37;;;;;;;29.80;5.65;;;3.00;99.90;;;;;;6126105;23;20226;-86
2023/01/31 02:45:17;;;;;;;28.25;5.30;;;3.30;99.90;;;;;;6151242;23;20068;-85
2023/01/31 02:48:14;;;;;;;25.67;4.60;;;3.00;99.90;;;;;;6126134;23;20024;-85
2023/01/31 02:50:59;;;;;;;24.88;4.55;;;3.10;99.90;;;;;;6101968;23;20020;-85
2023/01/31 02:53:35;;;;;;;28.42;4.65;;;3.10;99.90;;;;;;6125776;23;20024;-86
2023/01/31 02:56:18;;;;;;;23.33;4.25;;;3.10;99.90;;;;;;6102131;23;20088;-85
2023/01/31 02:58:53;;;;;;;22.27;4.68;;;3.10;99.90;;;;;;6151560;23;20020;-85
2023/01/31 03:01:27;;;;;;;30.25;5.25;;;3.10;99.90;;;;;;6128344;23;20201;-85
2023/01/31 03:03:58;;;;;;;24.42;4.60;;;3.10;99.90;;;;;;6157360;23;20090;-85
2023/01/31 03:06:24;;;;;;;29.00;4.70;;;3.10;99.90;;;;;;6238600;23;20022;-85
2023/01/31 03:09:21;;;;;;;28.95;5.15;;;3.10;99.90;;;;;;6213932;23;20043;-85
2023/01/31 03:12:17;;;;;;;21.67;4.10;;;3.10;99.90;;;;;;6213653;23;20311;-84
2023/01/31 03:15:02;;;;;;;29.75;4.68;;;3.10;99.90;;;;;;6189022;23;20009;-85
2023/01/31 03:17:56;;;;;;;26.77;5.10;;;3.10;99.90;;;;;;6238862;23;20684;-85
2023/01/31 03:20:35;;;;;;;28.83;4.82;;;3.20;99.90;;;;;;6212944;23;20075;-85
2023/01/31 03:23:05;;;;;;;19.42;4.07;;;3.20;99.90;;;;;;6192953;23;20016;-84
2023/01/31 03:25:34;;;;;;;24.30;4.82;;;3.20;99.90;;;;;;6219234;23;20100;-85
2023/01/31 03:28:05;;;;;;;21.63;4.05;;;3.30;99.90;;;;;;6213898;23;20367;-85
2023/01/31 03:30:40;;;;;;;27.50;4.40;;;3.30;99.90;;;;;;6213239;23;20016;-85
2023/01/31 03:33:25;;;;;;;23.25;4.32;;;3.30;99.90;;;;;;6238745;23;20463;-85
2023/01/31 03:36:06;;;;;;;26.50;5.25;;;3.40;99.90;;;;;;6213234;23;20009;-85
2023/01/31 03:38:36;;;;;;;25.63;3.95;;;3.40;99.90;;;;;;6213496;23;20039;-85
2023/01/31 03:41:24;;;;;;;22.33;4.13;;;3.40;99.90;;;;;;6213507;23;20083;-85
2023/01/31 03:43:57;;;;;;;21.27;3.83;;;3.40;99.90;;;;;;6213145;23;20059;-85
2023/01/31 03:46:43;;;;;;;;;;;3.50;99.90;;;;;;6213690;23;20025;-85
2023/01/31 03:49:12;;;;;;;21.63;4.10;;;3.50;99.90;;;;;;6214249;23;19977;-85
2023/01/31 03:51:44;;;;;;;22.63;4.15;;;3.50;99.90;;;;;;6213125;23;20096;-85
2023/01/31 03:54:19;;;;;;;25.58;4.30;;;3.50;99.90;;;;;;6239213;23;20044;-85
2023/01/31 03:57:10;;;;;;;21.85;4.50;;;3.60;99.90;;;;;;6238882;23;20630;-85
2023/01/31 03:59:38;;;;;;;24.75;4.85;;;3.60;99.90;;;;;;6212471;23;20013;-85
2023/01/31 04:02:09;;;;;;;27.35;5.05;;;3.70;99.90;;;;;;6213304;23;20009;-85
2023/01/31 04:04:48;;;;;;;27.25;4.55;;;3.70;99.90;;;;;;6214497;23;20015;-85
2023/01/31 04:07:14;;;;;;;24.77;4.40;;;3.80;99.90;;;;;;6238591;23;20009;-85
2023/01/31 04:09:40;;;;;;;36.28;6.18;;;3.80;99.90;;;;;;6212914;23;20447;-85
2023/01/31 04:12:05;;;;;;;21.60;4.30;;;4.20;99.90;;;;;;6187600;23;20032;-85
2023/01/31 04:14:31;;;;;;;26.23;4.53;;;3.90;99.90;;;;;;6187849;23;20082;-85
2023/01/31 04:16:57;;;;;;;26.90;5.22;;;3.90;99.90;;;;;;6213109;23;20004;-85
2023/01/31 04:19:22;;;;;;;26.92;5.20;;;4.00;99.90;;;;;;6187543;23;20320;-85
2023/01/31 04:21:48;;;;;;;25.40;5.07;;;4.00;99.90;;;;;;6187690;23;20098;-85
2023/01/31 04:24:14;;;;;;;24.10;4.78;;;4.10;99.90;;;;;;6187838;23;20344;-85
2023/01/31 04:26:39;;;;;;;30.15;5.72;;;4.10;99.90;;;;;;6213235;23;20016;-84
2023/01/31 04:29:05;;;;;;;32.55;5.63;;;4.20;99.90;;;;;;6187988;23;20028;-85
2023/01/31 04:31:30;;;;;;;36.00;5.00;;;4.30;99.90;;;;;;6212696;23;20005;-85
2023/01/31 04:33:56;;;;;;;27.70;5.68;;;4.40;99.90;;;;;;6211989;23;20012;-85
2023/01/31 04:36:26;;;;;;;27.85;6.30;;;4.30;99.90;;;;;;6187811;23;20023;-84
2023/01/31 04:38:51;;;;;;;35.80;6.20;;;4.30;99.90;;;;;;6212948;23;20004;-85
2023/01/31 04:41:17;;;;;;;32.90;5.05;;;4.30;99.90;;;;;;6187532;23;20044;-84
2023/01/31 04:43:43;;;;;;;34.20;5.63;;;4.40;99.90;;;;;;6214110;23;20012;-84
2023/01/31 04:46:08;;;;;;;27.15;5.50;;;4.40;99.90;;;;;;6214138;23;20023;-84
2023/01/31 04:48:34;;;;;;;33.10;6.05;;;4.40;99.90;;;;;;6211693;23;20309;-85
2023/01/31 04:51:00;;;;;;;27.00;5.72;;;4.50;99.90;;;;;;6212676;23;20009;-85
2023/01/31 04:53:26;;;;;;;28.70;5.47;;;4.50;99.90;;;;;;6214330;23;20151;-84
2023/01/31 04:55:55;;;;;;;25.23;5.90;;;4.50;99.90;;;;;;6214483;23;20008;-85
2023/01/31 04:58:21;;;;;;;35.25;7.13;;;4.60;99.90;;;;;;6213863;23;20013;-85
2023/01/31 05:00:46;;;;;;;42.17;7.28;;;4.60;99.90;;;;;;6218633;23;20059;-85
2023/01/31 05:03:12;;;;;;;34.40;6.85;;;4.70;99.90;;;;;;6213137;23;20016;-84
2023/01/31 05:05:38;;;;;;;35.60;6.03;;;4.70;99.90;;;;;;6212578;23;20048;-86
2023/01/31 05:08:05;;;;;;;36.75;7.50;;;4.70;99.90;;;;;;6188021;23;20017;-85
2023/01/31 05:10:30;;;;;;;26.73;5.82;;;4.80;99.90;;;;;;6212584;23;20013;-85
2023/01/31 05:12:56;;;;;;;33.25;7.22;;;4.70;99.90;;;;;;6212757;23;20374;-85
2023/01/31 05:15:21;;;;;;;33.22;6.63;;;4.70;99.90;;;;;;6187429;23;20017;-85
2023/01/31 05:17:52;;;;;;;31.10;6.53;;;4.70;99.90;;;;;;6212120;23;20054;-85
2023/01/31 05:20:17;;;;;;;39.45;7.55;;;4.70;99.90;;;;;;6214543;23;20036;-85
2023/01/31 05:22:47;;;;;;;45.45;7.30;;;4.70;99.90;;;;;;6187206;23;20036;-85
2023/01/31 05:25:13;;;;;;;33.67;7.75;;;4.80;99.90;;;;;;6212530;23;20008;-84
2023/01/31 05:27:38;;;;;;;40.20;6.75;;;4.80;99.90;;;;;;6237626;23;20013;-84
2023/01/31 05:30:05;;;;;;;40.13;6.90;;;4.80;99.90;;;;;;6187265;23;20012;-83
2023/01/31 05:32:30;;;;;;;35.85;7.28;;;4.80;99.90;;;;;;6186110;23;20008;-85
2023/01/31 05:34:56;;;;;;;35.40;6.70;;;4.80;99.90;;;;;;6212188;23;20055;-85
2023/01/31 05:37:22;;;;;;;36.30;7.47;;;4.90;99.90;;;;;;6213822;23;20004;-85
2023/01/31 05:39:47;;;;;;;40.13;7.47;;;4.90;99.90;;;;;;6213931;23;20070;-84
2023/01/31 05:42:13;;;;;;;32.85;7.20;;;4.90;99.90;;;;;;6211615;23;20017;-84
2023/01/31 05:44:38;;;;;;;45.35;7.97;;;4.90;99.90;;;;;;6211972;23;20028;-85
2023/01/31 05:47:04;;;;;;;38.88;7.53;;;4.90;99.90;;;;;;6217226;23;20008;-84
2023/01/31 05:49:32;;;;;;;36.85;7.75;;;4.90;99.90;;;;;;6217862;23;20339;-84
2023/01/31 05:51:58;;;;;;;45.97;7.30;;;5.30;99.90;;;;;;6211904;23;20079;-84
2023/01/31 05:54:24;;;;;;;38.25;7.43;;;4.90;99.90;;;;;;6211636;23;20013;-84
2023/01/31 05:56:50;;;;;;;29.67;7.20;;;4.90;99.90;;;;;;6211939;23;20340;-84
2023/01/31 05:59:15;;;;;;;43.20;8.00;;;4.90;99.90;;;;;;6211995;23;20042;-85
2023/01/31 06:01:41;;;;;;;39.35;8.18;;;4.90;99.90;;;;;;6211682;23;20009;-84
2023/01/31 06:04:08;;;;;;;34.65;7.13;;;5.00;99.90;;;;;;6211904;23;20013;-85
2023/01/31 06:06:33;;;;;;;40.10;7.03;;;5.00;99.90;;;;;;6211794;23;20017;-85
2023/01/31 06:08:59;;;;;;;40.90;8.23;;;5.00;99.90;;;;;;6211285;23;20054;-85
2023/01/31 06:11:25;;;;;;;42.13;8.07;;;5.10;99.90;;;;;;6236319;23;20408;-86
2023/01/31 06:13:50;;;;;;;35.78;7.30;;;5.00;99.90;;;;;;6186250;23;20187;-85
2023/01/31 06:16:16;;;;;;;29.30;7.40;;;5.00;99.90;;;;;;6210729;23;20005;-85
2023/01/31 06:18:42;;;;;;;38.58;7.75;;;5.30;99.90;;;;;;6185671;23;20051;-85
2023/01/31 06:21:07;;;;;;;32.03;7.65;;;5.10;99.90;;;;;;6212280;23;20009;-85
2023/01/31 06:23:33;;;;;;;44.67;7.82;;;5.10;99.90;;;;;;6210703;23;20023;-85
2023/01/31 06:25:59;;;;;;;40.70;8.10;;;5.10;99.90;;;;;;6213073;23;20108;-86
2023/01/31 06:28:25;;;;;;;37.88;7.70;;;5.10;99.90;;;;;;6212792;23;20110;-85
2023/01/31 06:30:50;;;;;;;41.28;8.85;;;5.10;99.90;;;;;;6185590;23;20117;-86
2023/01/31 06:33:16;;;;;;;31.95;7.40;;;5.20;99.90;;;;;;6211405;23;20017;-86
2023/01/31 06:35:42;;;;;;;33.78;8.18;;;5.20;99.90;;;;;;6214078;23;20335;-85
2023/01/31 06:38:08;;;;;;;45.45;8.82;;;5.20;99.90;;;;;;6186131;23;20004;-85
2023/01/31 06:40:35;;;;;;;39.67;8.45;;;5.60;99.90;;;;;;6211219;23;20289;-85
2023/01/31 06:43:01;;;;;;;37.22;7.63;;;5.50;99.90;;;;;;6211180;23;20020;-85
2023/01/31 06:45:27;;;;;;;36.90;8.93;;;5.30;99.90;;;;;;6212468;23;20012;-85
2023/01/31 06:47:53;;;;;;;29.30;7.78;;;5.60;99.90;;;;;;6211091;23;20139;-86
2023/01/31 06:50:18;;;;;;;39.45;8.40;;;5.20;99.90;;;;;;6211082;23;20328;-85
2023/01/31 06:52:44;;;;;;;35.75;7.30;;;5.30;99.90;;;;;;6185948;23;20040;-86
2023/01/31 06:55:10;;;;;;;40.45;8.60;;;5.30;99.90;;;;;;6212770;23;20440;-85
2023/01/31 06:57:36;;;;;;;40.28;7.88;;;5.40;99.90;;;;;;6211437;23;20016;-86
2023/01/31 07:00:03;;;;;;;40.63;7.90;;;5.30;99.90;;;;;;6211888;23;20091;-85
2023/01/31 07:02:28;;;;;;;43.85;7.90;;;5.30;99.90;;;;;;6236205;23;20016;-85
2023/01/31 07:04:54;;;;;;;35.42;7.82;;;5.30;99.90;;;;;;6211246;23;20051;-86
2023/01/31 07:07:20;;;;;;;33.20;6.82;;;5.40;99.90;;;;;;6185632;23;20317;-85
2023/01/31 07:09:48;;;;;;;32.95;7.47;;;5.40;99.90;;;;;;6210805;23;20091;-85
2023/01/31 07:12:14;;;;;;;36.67;7.57;;;5.40;99.90;;;;;;6210274;23;20414;-85
2023/01/31 07:14:41;;;;;;;32.88;7.25;;;5.40;99.90;;;;;;6212855;23;20048;-86
2023/01/31 07:17:07;;;;;;;29.98;7.43;;;5.40;99.90;;;;;;6213046;23;20099;-85
2023/01/31 07:19:32;;;;;;;30.13;6.88;;;5.60;99.90;;;;;;6213800;23;20013;-86
2023/01/31 07:21:58;;;;;;;32.58;6.20;;;5.50;99.90;;;;;;6214314;23;20032;-85
2023/01/31 07:24:23;;;;;;;34.53;6.97;;;5.50;99.90;;;;;;6186030;23;20100;-86
2023/01/31 07:26:52;;;;;;;33.60;7.75;;;5.50;99.90;;;;;;6185201;23;20335;-85
2023/01/31 07:29:18;;;;;;;34.28;7.05;;;5.50;99.90;;;;;;6212592;23;20075;-85
2023/01/31 07:31:44;;;;;;;35.15;6.80;;;5.50;99.90;;;;;;6210825;23;20480;-86
2023/01/31 07:34:09;;;;;;;29.02;6.40;;;5.60;99.90;;;;;;6210673;23;20009;-85
2023/01/31 07:36:35;;;;;;;33.72;6.88;;;5.60;99.90;;;;;;6212734;23;20092;-85
2023/01/31 07:39:00;;;;;;;29.45;6.22;;;5.60;99.90;;;;;;6210729;23;20339;-86
2023/01/31 07:41:26;;;;;;;28.27;6.35;;;5.60;99.90;;;;;;6210160;23;20013;-85
2023/01/31 07:43:52;;;;;;;29.15;6.10;;;5.60;99.90;;;;;;6210614;23;20017;-85
2023/01/31 07:46:18;;;;;;;25.75;6.57;;;5.70;99.90;;;;;;6211827;23;20028;-85
2023/01/31 07:48:44;;;;;;;33.80;6.82;;;5.60;99.90;;;;;;6213191;23;20082;-85
2023/01/31 07:51:10;;;;;;;24.50;6.25;;;5.70;99.90;;;;;;6212583;23;20008;-85
2023/01/31 07:53:41;;;;;;;28.55;6.35;;;5.70;99.90;;;;;;6214467;23;20048;-85
2023/01/31 07:56:19;;;;;;;29.17;6.95;;;5.70;99.90;;;;;;6212017;23;20013;-86
2023/01/31 07:58:46;;;;;;;28.20;5.93;;;5.70;99.90;;;;;;6212687;23;20004;-85
2023/01/31 08:04:04;;;;;;;27.15;6.45;;;5.70;99.90;;;;;;6214451;23;20021;-85
2023/01/31 08:06:30;;;;;;;32.63;6.38;;;5.80;99.90;;;;;;6212742;23;20467;-85
2023/01/31 08:08:57;;;;;;;31.52;6.93;;;5.80;99.90;;;;;;6212982;23;20017;-85
2023/01/31 08:11:23;;;;;;;28.33;5.30;;;5.80;99.90;;;;;;6212446;23;20013;-85
2023/01/31 08:13:48;;;;;;;29.63;6.70;;;5.90;99.90;;;;;;6187169;23;20016;-86
2023/01/31 08:16:14;;;;;;;22.95;5.57;;;6.00;99.90;;;;;;6212115;23;20028;-85
2023/01/31 08:18:40;;;;;;;28.38;6.47;;;5.90;99.90;;;;;;6212717;23;20015;-85
2023/01/31 08:21:07;;;;;;;26.60;5.80;;;5.90;99.90;;;;;;6187109;23;20479;-85
2023/01/31 08:23:33;;;;;;;29.38;5.80;;;5.90;99.90;;;;;;6214306;23;20009;-86
2023/01/31 08:26:14;;;;;;;26.98;5.00;;;5.90;99.90;;;;;;6211621;23;20347;-85
2023/01/31 08:28:41;;;;;;;28.13;6.32;;;5.90;99.90;;;;;;6212148;23;20074;-85
2023/01/31 08:31:11;;;;;;;32.30;6.90;;;5.90;99.90;;;;;;6212148;23;20082;-85
2023/01/31 08:33:37;;;;;;;24.75;5.65;;;6.00;99.90;;;;;;6187563;23;20092;-86
2023/01/31 08:36:15;;;;;;;21.20;5.05;;;6.00;99.90;;;;;;6187059;23;20024;-85
2023/01/31 08:38:41;;;;;;;23.08;5.97;;;6.00;99.90;;;;;;6187137;23;20013;-86
2023/01/31 08:41:07;;;;;;;36.03;6.78;;;6.00;99.90;;;;;;6211379;23;20139;-85
2023/01/31 08:43:32;;;;;;;28.08;5.60;;;6.30;99.90;;;;;;6211796;23;20017;-86
2023/01/31 08:45:58;;;;;;;19.58;5.45;;;6.00;99.90;;;;;;6212132;23;20012;-85
2023/01/31 08:48:24;;;;;;;21.48;5.13;;;6.00;99.90;;;;;;6187176;23;20320;-85
2023/01/31 08:50:49;;;;;;;17.15;5.25;;;6.00;99.90;;;;;;6186996;23;20367;-85
2023/01/31 08:53:15;;;;;;;19.90;4.43;;;6.10;99.90;;;;;;6188022;23;20017;-86
2023/01/31 08:55:40;;;;;;;29.20;5.68;;;6.20;99.90;;;;;;6211513;23;20013;-86
2023/01/31 08:58:06;;;;;;;28.92;5.68;;;6.10;99.90;;;;;;6211943;23;20447;-85
2023/01/31 09:00:32;;;;;;;27.35;4.70;;;6.30;99.90;;;;;;6186759;23;20016;-85
2023/01/31 09:02:59;;;;;;;28.13;5.60;;;6.20;99.90;;;;;;6211986;23;20324;-85
2023/01/31 09:05:26;;;;;;;21.45;5.80;;;6.30;99.90;;;;;;6211597;23;20016;-85
2023/01/31 09:07:52;;;;;;;19.77;4.70;;;6.30;99.90;;;;;;6211806;23;20091;-85
2023/01/31 09:10:19;;;;;;;25.17;5.20;;;6.30;99.90;;;;;;6213430;23;20059;-85
2023/01/31 09:12:45;;;;;;;22.23;5.35;;;6.30;99.90;;;;;;6212061;23;20055;-85
2023/01/31 09:15:11;;;;;;;20.17;4.63;;;6.30;99.90;;;;;;6212450;23;20087;-85
2023/01/31 09:17:38;;;;;;;29.75;4.80;;;6.40;99.90;;;;;;6212134;23;20040;-85
2023/01/31 09:20:05;;;;;;;26.98;5.40;;;6.40;99.90;;;;;;6211976;23;20009;-88
2023/01/31 09:22:32;;;;;;;27.13;5.50;;;6.40;99.90;;;;;;6211818;23;20023;-85
2023/01/31 09:24:59;;;;;;;25.33;5.30;;;6.40;99.90;;;;;;6211293;23;20440;-85
2023/01/31 09:27:25;;;;;;;25.08;5.35;;;6.40;99.90;;;;;;6211897;23;20021;-86
2023/01/31 09:29:50;;;;;;;26.05;5.88;;;6.40;99.90;;;;;;6213678;23;20343;-85
2023/01/31 09:32:16;;;;;;;22.70;4.97;;;6.40;99.90;;;;;;6212051;23;20012;-85
2023/01/31 09:34:42;;;;;;;22.63;4.95;;;6.40;99.90;;;;;;6213607;23;20015;-86
2023/01/31 09:37:07;;;;;;;25.92;5.88;;;6.60;99.90;;;;;;6211761;23;20013;-85
2023/01/31 09:39:33;;;;;;;28.33;6.05;;;6.50;99.90;;;;;;6186433;23;20020;-85
2023/01/31 09:42:22;;;;;;;29.08;5.82;;;6.50;99.90;;;;;;6213658;23;20011;-85
2023/01/31 09:45:10;;;;;;;28.30;5.25;;;6.50;99.90;;;;;;6211530;23;20027;-85
2023/01/31 09:47:41;;;;;;;22.23;4.82;;;6.50;99.90;;;;;;6186515;23;20071;-85
2023/01/31 09:50:23;;;;;;;26.30;5.55;;;6.70;99.90;;;;;;6213424;23;20080;-85
2023/01/31 09:52:49;;;;;;;25.88;5.65;;;6.60;99.90;;;;;;6185822;23;20012;-85
2023/01/31 09:55:38;;;;;;;24.08;5.53;;;6.60;99.90;;;;;;6211822;23;20308;-86
2023/01/31 09:58:41;;;;;;;21.33;5.05;;;6.60;99.90;;;;;;6211345;23;20083;-85
2023/01/31 10:01:17;;;;;;;22.65;4.72;;;6.60;99.90;;;;;;6186592;23;20021;-85
2023/01/31 10:03:45;;;;;;;29.70;5.95;;;6.60;99.90;;;;;;6211241;23;20050;-86
2023/01/31 10:06:25;;;;;;;26.25;5.65;;;6.60;99.90;;;;;;6210522;23;20016;-85
2023/01/31 10:09:03;;;;;;;26.27;5.30;;;6.60;99.90;;;;;;6210773;23;20065;-84
2023/01/31 10:11:42;;;;;;;28.88;6.07;;;6.60;99.90;;;;;;6211243;23;20020;-84
2023/01/31 10:14:14;;;;;;;30.08;6.53;;;6.60;99.90;;;;;;6213161;23;20035;-85
2023/01/31 10:16:47;;;;;;;23.58;5.75;;;6.70;99.90;;;;;;6211241;23;20020;-85
2023/01/31 10:19:21;;;;;;;23.45;5.50;;;6.70;99.90;;;;;;6236977;23;20001;-85
2023/01/31 10:21:52;;;;;;;30.27;6.30;;;6.70;99.90;;;;;;6212910;23;20028;-85
2023/01/31 10:24:31;;;;;;;26.98;5.80;;;6.80;99.90;;;;;;6223823;23;20022;-85
2023/01/31 10:27:03;;;;;;;25.60;4.72;;;6.70;99.90;;;;;;6237837;23;20317;-85
2023/01/31 10:29:42;;;;;;;25.80;5.93;;;6.90;99.90;;;;;;6211327;23;20013;-85
2023/01/31 10:32:29;;;;;;;29.38;6.05;;;6.80;99.90;;;;;;6211103;23;20016;-85
2023/01/31 10:35:01;;;;;;;35.25;5.72;;;6.80;99.90;;;;;;6212949;23;20150;-85
2023/01/31 10:37:41;;;;;;;25.85;5.90;;;6.80;99.90;;;;;;6236162;23;20009;-85
2023/01/31 10:40:21;;;;;;;23.73;5.35;;;6.80;99.90;;;;;;6210947;23;20092;-85
2023/01/31 10:42:59;;;;;;;29.77;6.65;;;6.80;99.90;;;;;;6211207;23;20058;-86
2023/01/31 10:45:29;;;;;;;25.80;5.70;;;6.90;99.90;;;;;;6211151;23;20059;-86
2023/01/31 10:48:13;;;;;;;26.33;5.95;;;6.90;99.90;;;;;;6211554;23;20052;-85
2023/01/31 10:50:55;;;;;;;28.40;5.95;;;6.90;99.90;;;;;;6211114;23;20013;-85
2023/01/31 10:53:44;;;;;;;24.23;5.25;;;6.80;99.90;;;;;;6210884;23;20013;-85
2023/01/31 10:56:25;;;;;;;31.05;6.68;;;6.90;99.90;;;;;;6211531;23;20087;-85
2023/01/31 10:58:52;;;;;;;26.02;5.18;;;6.80;99.90;;;;;;6211015;23;20084;-85
2023/01/31 11:01:18;;;;;;;32.90;6.55;;;6.80;99.90;;;;;;6212870;23;20009;-85
2023/01/31 11:03:52;;;;;;;30.60;6.18;;;6.80;99.90;;;;;;6211087;23;20009;-85
2023/01/31 11:06:19;;;;;;;28.10;5.90;;;6.80;99.90;;;;;;6210402;23;20452;-85
2023/01/31 11:08:47;;;;;;;22.50;5.32;;;7.10;99.90;;;;;;6211106;23;20013;-85
2023/01/31 11:11:16;;;;;;;29.10;5.90;;;6.90;99.90;;;;;;6237074;23;20016;-84
2023/01/31 11:14:01;;;;;;;31.85;6.00;;;7.10;99.90;;;;;;6210719;23;20023;-84
2023/01/31 11:16:38;;;;;;;25.55;6.03;;;6.90;99.90;;;;;;6236696;23;20118;-84
2023/01/31 11:19:24;;;;;;;23.95;5.50;;;6.90;99.90;;;;;;6212392;23;20017;-84
2023/01/31 11:21:52;;;;;;;24.38;5.53;;;7.30;99.90;;;;;;6187470;23;20343;-84
2023/01/31 11:24:24;;;;;;;27.42;5.70;;;7.00;99.90;;;;;;6212902;23;20329;-84
2023/01/31 11:27:05;;;;;;;26.27;5.28;;;7.10;99.90;;;;;;6238800;23;20083;-84
2023/01/31 11:29:44;;;;;;;28.10;5.97;;;7.10;99.90;;;;;;6212743;23;20019;-84
2023/01/31 11:32:31;;;;;;;21.20;5.45;;;7.10;99.90;;;;;;6212763;23;20017;-84
2023/01/31 11:35:04;;;;;;;19.73;4.90;;;7.10;99.90;;;;;;6214143;23;20021;-85
2023/01/31 11:37:31;;;;;;;19.65;4.75;;;7.10;99.90;;;;;;6238802;23;20017;-85
2023/01/31 11:40:15;;;;;;;24.30;5.30;;;7.10;99.90;;;;;;6212650;23;20040;-84
2023/01/31 11:42:52;;;;;;;21.10;5.65;;;7.20;99.90;;;;;;6212673;23;20066;-85
2023/01/31 11:45:26;;;;;;;26.17;5.47;;;7.10;99.90;;;;;;6213152;23;20047;-84
2023/01/31 11:47:54;;;;;;;20.63;5.35;;;7.10;99.90;;;;;;6212092;23;20020;-84
2023/01/31 11:50:25;;;;;;;20.55;6.30;;;7.20;99.90;;;;;;6212591;23;20013;-84
2023/01/31 11:53:02;;;;;;;23.13;5.10;;;7.20;99.90;;;;;;6212535;23;20088;-85
2023/01/31 11:55:37;;;;;;;26.45;5.53;;;7.20;99.90;;;;;;6212530;23;20466;-84
2023/01/31 11:58:18;;;;;;;24.60;5.03;;;7.40;99.90;;;;;;6212390;23;20009;-84
2023/01/31 12:00:59;;;;;;;22.98;5.25;;;7.30;99.90;;;;;;6212845;23;20031;-85
2023/01/31 12:03:26;;;;;;;24.48;5.50;;;7.30;99.90;;;;;;6213960;23;20036;-85
2023/01/31 12:06:28;;;;;;;28.17;6.18;;;7.50;99.90;;;;;;6212435;23;20012;-84
2023/01/31 12:08:56;;;;;;;25.95;5.20;;;7.40;99.90;;;;;;6159640;23;20012;-84
2023/01/31 12:11:29;;;;;;;25.25;5.85;;;7.40;99.90;;;;;;6238293;23;20004;-85
2023/01/31 12:14:13;;;;;;;28.20;5.82;;;7.50;99.90;;;;;;6212388;23;20015;-85
2023/01/31 12:16:40;;;;;;;25.58;5.22;;;7.60;99.90;;;;;;6212481;23;20013;-85
2023/01/31 12:19:29;;;;;;;24.65;5.32;;;7.90;99.90;;;;;;6212248;23;20008;-84
2023/01/31 12:21:55;;;;;;;26.33;5.40;;;7.70;99.90;;;;;;6212354;23;20013;-84
2023/01/31 12:24:58;;;;;;;20.60;6.07;;;7.70;99.90;;;;;;6212400;23;20013;-84
2023/01/31 12:28:00;;;;;;;29.83;6.00;;;7.80;99.90;;;;;;6212290;23;20019;-84
2023/01/31 12:30:44;;;;;;;28.20;6.40;;;7.90;99.90;;;;;;6212256;23;20025;-85
2023/01/31 12:33:39;;;;;;;22.83;5.93;;;7.90;99.90;;;;;;6213394;23;20012;-85
2023/01/31 12:36:43;;;;;;;32.03;6.60;;;8.00;99.90;;;;;;6213847;23;20016;-85
2023/01/31 12:39:17;;;;;;;27.20;5.60;;;8.10;99.90;;;;;;6212495;23;20013;-84
2023/01/31 12:41:46;;;;;;;27.08;5.40;;;8.10;99.90;;;;;;6214801;23;20013;-84
2023/01/31 12:44:42;;;;;;;28.00;5.90;;;8.20;99.90;;;;;;6212761;23;20015;-85
2023/01/31 12:47:29;;;;;;;20.80;4.63;;;8.20;99.90;;;;;;6211587;23;20008;-84
2023/01/31 12:50:10;;;;;;;23.45;5.10;;;8.30;99.90;;;;;;6212073;23;20015;-85
2023/01/31 12:53:24;;;;;;;22.77;5.13;;;8.30;99.90;;;;;;6187078;23;20048;-84
2023/01/31 12:55:59;;;;;;;21.57;4.53;;;8.30;99.90;;;;;;6180436;23;20012;-85
2023/01/31 12:58:50;;;;;;;25.88;5.97;;;8.40;99.90;;;;;;6212035;23;20008;-84
2023/01/31 13:01:26;;;;;;;20.52;4.70;;;8.40;99.90;;;;;;6211310;23;20130;-84
2023/01/31 13:04:13;;;;;;;24.85;4.68;;;8.50;99.90;;;;;;6211816;23;20032;-84
2023/01/31 13:06:52;;;;;;;24.80;4.90;;;8.60;99.90;;;;;;6212171;23;20154;-84
2023/01/31 13:09:19;;;;;;;21.02;4.78;;;8.70;99.90;;;;;;6211672;23;20020;-84
2023/01/31 13:12:14;;;;;;;19.98;4.82;;;8.70;99.90;;;;;;6237537;23;20028;-84
2023/01/31 13:14:44;;;;;;;20.27;4.68;;;8.70;99.90;;;;;;6211372;23;20008;-84